Terminal Aerodrome Forecast
Issued by NWS Grand Forks, ND

Home | Current Version | Previous Version | Graphics & Text | Print | Product List | Glossary On
Versions: 1 2 3 4 5 6 7 8 9 10 11 12 13 14 15 16
000
FTUS43 KFGF 201700
TAFGFK
TAF
KGFK 201728Z 2018/2118 20008KT 1SM BR OVC004
      TEMPO 2018/2020 3SM BR OVC006
     FM202000 18008KT 4SM BR OVC006
     FM210100 18008KT 6SM BR OVC004
     FM211000 17009KT 5SM BR OVC009=

USA.gov is the U.S. government's official web portal to all federal, state and local government web resources and services.